BAW903 EDDF-EGLL
Flight info
| Callsign | BAW903 |
|---|---|
| Flight time | N/A |
| Altitude | 40000 |
| Route | OBOKA5G/25C OBOKA Z29 TORNU DCT ABNED L980 LOGAN |
| Aircraft | B77W/H-SDE1E2E3FGHIJ2J3J4J5M1RWXY/LB1D1 |
Departure
| Time | 2026-05-06 18:07 |
|---|---|
| Airport | Frankfurt Main Airport (EDDF) |
Arrival
| Time | N/A |
|---|---|
| Airport | London Heathrow Airport (EGLL) |
| Time | Latitude | Longitude | Altitude | Speed | Heading |
|---|---|---|---|---|---|
| 2026-05-06 16:29 | 50.04673 | 8.56050 | 358 ft | 0 kts | 340° |
| 2026-05-06 16:45 | 50.04673 | 8.56049 | 358 ft | 0 kts | 340° |
| 2026-05-06 17:00 | 50.04673 | 8.56050 | 358 ft | 0 kts | 340° |
| 2026-05-06 17:24 | 50.04672 | 8.56050 | 358 ft | 1 kts | 340° |
| 2026-05-06 17:25 | 50.04659 | 8.56058 | 358 ft | 1 kts | 340° |
| 2026-05-06 17:25 | 50.04650 | 8.56063 | 358 ft | 2 kts | 337° |
| 2026-05-06 17:25 | 50.04637 | 8.56074 | 358 ft | 2 kts | 323° |
| 2026-05-06 17:25 | 50.04626 | 8.56090 | 358 ft | 2 kts | 311° |
| 2026-05-06 17:26 | 50.04617 | 8.56108 | 358 ft | 2 kts | 301° |
| 2026-05-06 17:26 | 50.04610 | 8.56129 | 358 ft | 2 kts | 290° |
| 2026-05-06 17:26 | 50.04606 | 8.56151 | 358 ft | 2 kts | 279° |
| 2026-05-06 17:26 | 50.04605 | 8.56174 | 358 ft | 2 kts | 268° |
| 2026-05-06 17:27 | 50.04606 | 8.56197 | 358 ft | 2 kts | 257° |
| 2026-05-06 17:27 | 50.04610 | 8.56215 | 358 ft | 0 kts | 249° |
| 2026-05-06 17:27 | 50.04610 | 8.56217 | 358 ft | 0 kts | 248° |
| 2026-05-06 17:31 | 50.04608 | 8.56207 | 358 ft | 3 kts | 248° |
| 2026-05-06 17:31 | 50.04594 | 8.56156 | 358 ft | 6 kts | 249° |
| 2026-05-06 17:31 | 50.04577 | 8.56086 | 358 ft | 7 kts | 249° |
| 2026-05-06 17:32 | 50.04557 | 8.56007 | 358 ft | 8 kts | 245° |
| 2026-05-06 17:32 | 50.04518 | 8.55953 | 358 ft | 8 kts | 203° |
| 2026-05-06 17:32 | 50.04460 | 8.55926 | 358 ft | 8 kts | 197° |
| 2026-05-06 17:32 | 50.04398 | 8.55909 | 358 ft | 9 kts | 176° |
| 2026-05-06 17:33 | 50.04332 | 8.55936 | 358 ft | 10 kts | 161° |
| 2026-05-06 17:33 | 50.04271 | 8.55957 | 358 ft | 4 kts | 186° |
| 2026-05-06 17:33 | 50.04249 | 8.55945 | 358 ft | 3 kts | 205° |
| 2026-05-06 17:33 | 50.04226 | 8.55929 | 358 ft | 4 kts | 205° |
| 2026-05-06 17:34 | 50.04198 | 8.55922 | 358 ft | 5 kts | 172° |
| 2026-05-06 17:34 | 50.04157 | 8.55939 | 358 ft | 6 kts | 164° |
| 2026-05-06 17:34 | 50.04134 | 8.55950 | 358 ft | 0 kts | 163° |
| 2026-05-06 17:34 | 50.04127 | 8.55953 | 358 ft | 3 kts | 163° |
| 2026-05-06 17:35 | 50.04080 | 8.56039 | 358 ft | 10 kts | 88° |
| 2026-05-06 17:35 | 50.04098 | 8.56142 | 358 ft | 10 kts | 70° |
| 2026-05-06 17:35 | 50.04122 | 8.56244 | 358 ft | 10 kts | 71° |
| 2026-05-06 17:36 | 50.04169 | 8.56453 | 358 ft | 10 kts | 70° |
| 2026-05-06 17:36 | 50.04195 | 8.56557 | 358 ft | 10 kts | 69° |
| 2026-05-06 17:36 | 50.04222 | 8.56666 | 358 ft | 12 kts | 69° |
| 2026-05-06 17:36 | 50.04256 | 8.56805 | 358 ft | 16 kts | 69° |
| 2026-05-06 17:37 | 50.04295 | 8.56969 | 358 ft | 16 kts | 70° |
| 2026-05-06 17:37 | 50.04340 | 8.57151 | 358 ft | 20 kts | 69° |
| 2026-05-06 17:37 | 50.04390 | 8.57357 | 358 ft | 20 kts | 70° |
| 2026-05-06 17:37 | 50.04436 | 8.57556 | 358 ft | 19 kts | 70° |
| 2026-05-06 17:38 | 50.04481 | 8.57748 | 358 ft | 18 kts | 70° |
| 2026-05-06 17:38 | 50.04526 | 8.57928 | 358 ft | 17 kts | 69° |
| 2026-05-06 17:38 | 50.04569 | 8.58102 | 358 ft | 17 kts | 71° |
| 2026-05-06 17:38 | 50.04607 | 8.58269 | 358 ft | 16 kts | 70° |
| 2026-05-06 17:39 | 50.04647 | 8.58441 | 358 ft | 16 kts | 70° |
| 2026-05-06 17:39 | 50.04687 | 8.58607 | 358 ft | 14 kts | 70° |
| 2026-05-06 17:39 | 50.04714 | 8.58715 | 358 ft | 9 kts | 60° |
| 2026-05-06 17:39 | 50.04765 | 8.58755 | 357 ft | 8 kts | 352° |
| 2026-05-06 17:40 | 50.04807 | 8.58733 | 357 ft | 0 kts | 340° |
| 2026-05-06 17:40 | 50.04808 | 8.58733 | 357 ft | 1 kts | 339° |
| 2026-05-06 17:41 | 50.04814 | 8.58720 | 357 ft | 2 kts | 285° |
| 2026-05-06 17:41 | 50.04803 | 8.58686 | 357 ft | 4 kts | 235° |
| 2026-05-06 17:41 | 50.04782 | 8.58643 | 357 ft | 5 kts | 230° |
| 2026-05-06 17:41 | 50.04768 | 8.58612 | 357 ft | 0 kts | 243° |
| 2026-05-06 18:02 | 50.04768 | 8.58611 | 357 ft | 0 kts | 243° |
| 2026-05-06 18:02 | 50.04762 | 8.58595 | 357 ft | 2 kts | 244° |
| 2026-05-06 18:03 | 50.04753 | 8.58569 | 357 ft | 3 kts | 237° |
| 2026-05-06 18:03 | 50.04727 | 8.58535 | 357 ft | 6 kts | 205° |
| 2026-05-06 18:03 | 50.04682 | 8.58540 | 357 ft | 7 kts | 161° |
| 2026-05-06 18:03 | 50.04631 | 8.58567 | 357 ft | 8 kts | 161° |
| 2026-05-06 18:04 | 50.04579 | 8.58595 | 357 ft | 7 kts | 161° |
| 2026-05-06 18:04 | 50.04528 | 8.58617 | 357 ft | 7 kts | 181° |
| 2026-05-06 18:04 | 50.04484 | 8.58574 | 357 ft | 6 kts | 239° |
| 2026-05-06 18:04 | 50.04478 | 8.58546 | 357 ft | 0 kts | 255° |
| 2026-05-06 18:05 | 50.04478 | 8.58545 | 357 ft | 1 kts | 255° |
| 2026-05-06 18:06 | 50.04464 | 8.58476 | 357 ft | 20 kts | 253° |
| 2026-05-06 18:06 | 50.04370 | 8.58049 | 357 ft | 71 kts | 250° |
| 2026-05-06 18:06 | 50.04081 | 8.56846 | 358 ft | 162 kts | 250° |
| 2026-05-06 18:06 | 50.03657 | 8.55130 | 835 ft | 173 kts | 251° |
| 2026-05-06 18:07 | 50.03228 | 8.53333 | 1575 ft | 181 kts | 252° |
| 2026-05-06 18:07 | 50.02866 | 8.51594 | 2524 ft | 174 kts | 252° |
| 2026-05-06 18:07 | 50.02425 | 8.49813 | 3202 ft | 184 kts | 252° |
| 2026-05-06 18:07 | 50.02370 | 8.47767 | 3726 ft | 198 kts | 288° |
| 2026-05-06 18:08 | 50.02939 | 8.45696 | 4406 ft | 218 kts | 288° |
| 2026-05-06 18:08 | 50.03144 | 8.43305 | 5207 ft | 235 kts | 266° |
| 2026-05-06 18:08 | 50.02752 | 8.40801 | 6039 ft | 251 kts | 255° |
| 2026-05-06 18:08 | 50.02326 | 8.38226 | 6992 ft | 262 kts | 258° |
| 2026-05-06 18:09 | 50.01954 | 8.35372 | 8021 ft | 273 kts | 260° |
| 2026-05-06 18:09 | 50.01625 | 8.32607 | 9067 ft | 280 kts | 259° |
| 2026-05-06 18:09 | 50.01345 | 8.29682 | 9658 ft | 284 kts | 268° |
| 2026-05-06 18:09 | 50.01597 | 8.26905 | 9793 ft | 286 kts | 287° |
| 2026-05-06 18:10 | 50.02341 | 8.24059 | 9823 ft | 295 kts | 292° |
| 2026-05-06 18:10 | 50.03122 | 8.21396 | 9828 ft | 335 kts | 292° |
| 2026-05-06 18:10 | 50.04126 | 8.17991 | 9819 ft | 357 kts | 292° |
| 2026-05-06 18:10 | 50.05153 | 8.14486 | 9809 ft | 362 kts | 293° |
| 2026-05-06 18:11 | 50.06432 | 8.11045 | 9809 ft | 364 kts | 303° |
| 2026-05-06 18:11 | 50.07914 | 8.08067 | 9814 ft | 366 kts | 307° |
| 2026-05-06 18:11 | 50.09513 | 8.04974 | 9839 ft | 363 kts | 307° |
| 2026-05-06 18:11 | 50.11087 | 8.01929 | 9823 ft | 361 kts | 307° |
| 2026-05-06 18:12 | 50.12633 | 7.98933 | 9817 ft | 365 kts | 307° |
| 2026-05-06 18:12 | 50.14064 | 7.96152 | 10132 ft | 363 kts | 307° |
| 2026-05-06 18:12 | 50.15508 | 7.93337 | 10551 ft | 365 kts | 307° |
| 2026-05-06 18:12 | 50.17566 | 7.89319 | 11151 ft | 370 kts | 307° |
| 2026-05-06 18:13 | 50.19155 | 7.86212 | 11609 ft | 373 kts | 307° |
| 2026-05-06 18:13 | 50.20727 | 7.83137 | 12054 ft | 376 kts | 307° |
| 2026-05-06 18:13 | 50.22352 | 7.79952 | 12550 ft | 380 kts | 307° |
| 2026-05-06 18:13 | 50.24053 | 7.76875 | 13027 ft | 384 kts | 314° |
| 2026-05-06 18:14 | 50.26067 | 7.74123 | 13512 ft | 388 kts | 322° |
| 2026-05-06 18:14 | 50.28355 | 7.71833 | 13990 ft | 392 kts | 330° |
| 2026-05-06 18:14 | 50.30827 | 7.70032 | 14458 ft | 396 kts | 335° |
| 2026-05-06 18:14 | 50.33350 | 7.68334 | 14928 ft | 398 kts | 335° |
| 2026-05-06 18:15 | 50.35892 | 7.66618 | 15398 ft | 401 kts | 335° |
| 2026-05-06 18:15 | 50.38459 | 7.64875 | 15870 ft | 404 kts | 335° |
| 2026-05-06 18:15 | 50.41003 | 7.63140 | 16338 ft | 407 kts | 335° |
| 2026-05-06 18:15 | 50.43597 | 7.61367 | 16810 ft | 410 kts | 335° |
| 2026-05-06 18:16 | 50.46202 | 7.59579 | 17282 ft | 413 kts | 335° |
| 2026-05-06 18:16 | 50.48854 | 7.57755 | 17758 ft | 416 kts | 335° |
| 2026-05-06 18:16 | 50.51503 | 7.55929 | 18228 ft | 419 kts | 335° |
| 2026-05-06 18:16 | 50.54182 | 7.54078 | 18698 ft | 422 kts | 335° |
| 2026-05-06 18:17 | 50.56757 | 7.51969 | 19159 ft | 423 kts | 327° |
| 2026-05-06 18:17 | 50.59256 | 7.49456 | 19630 ft | 426 kts | 326° |
| 2026-05-06 18:17 | 50.61764 | 7.46886 | 19841 ft | 430 kts | 326° |
| 2026-05-06 18:17 | 50.64259 | 7.44326 | 19865 ft | 428 kts | 326° |
| 2026-05-06 18:18 | 50.66742 | 7.41776 | 19869 ft | 427 kts | 326° |
| 2026-05-06 18:18 | 50.69259 | 7.39190 | 19856 ft | 426 kts | 326° |
| 2026-05-06 18:18 | 50.71670 | 7.36522 | 19844 ft | 424 kts | 320° |
| 2026-05-06 18:18 | 50.73799 | 7.33383 | 19843 ft | 422 kts | 310° |
| 2026-05-06 18:19 | 50.75589 | 7.29840 | 19845 ft | 420 kts | 302° |
| 2026-05-06 18:19 | 50.77067 | 7.25876 | 19845 ft | 418 kts | 296° |
| 2026-05-06 18:19 | 50.78310 | 7.22093 | 19844 ft | 418 kts | 295° |
| 2026-05-06 18:19 | 50.79584 | 7.18178 | 19848 ft | 418 kts | 295° |